createdAt,value
2023-01-01T00:00:39.769Z,15.77
2023-01-01T00:01:42.372Z,17.90
2023-01-01T00:02:44.233Z,18.67
2023-01-01T00:03:50.828Z,19.50
2023-01-01T00:04:52.854Z,22.07
2023-01-01T00:05:54.619Z,22.80
2023-01-01T00:06:56.342Z,25.07
2023-01-01T00:08:04.230Z,24.57
2023-01-01T00:09:25.624Z,26.50
2023-01-01T00:10:30.263Z,28.07
2023-01-01T00:11:32.293Z,29.27
2023-01-01T00:12:34.421Z,30.87
2023-01-01T00:13:39.417Z,30.50
2023-01-01T00:14:43.826Z,33.03
2023-01-01T00:15:45.611Z,31.90
2023-01-01T00:16:47.473Z,35.00
2023-01-01T00:17:49.524Z,34.17
2023-01-01T00:18:51.258Z,37.03
2023-01-01T00:19:53.039Z,36.93
2023-01-01T00:21:12.302Z,37.20
2023-01-01T00:22:52.619Z,35.37
2023-01-01T00:23:36.106Z,34.93
2023-01-01T00:24:37.848Z,39.03
2023-01-01T00:25:42.796Z,38.43
2023-01-01T00:26:44.621Z,40.23
2023-01-01T00:27:46.461Z,40.53
2023-01-01T00:28:48.427Z,39.80
2023-01-01T00:29:50.281Z,39.93
2023-01-01T00:30:52.215Z,39.37
2023-01-01T00:31:54.032Z,39.27
2023-01-01T00:32:56.534Z,39.83
2023-01-01T00:33:58.748Z,37.37
2023-01-01T00:35:00.515Z,39.50
2023-01-01T00:36:13.422Z,38.83
2023-01-01T00:37:15.996Z,38.33
2023-01-01T00:38:17.748Z,39.30
2023-01-01T00:39:19.506Z,37.67
2023-01-01T00:40:21.493Z,37.37
2023-01-01T00:41:23.776Z,37.10
2023-01-01T00:42:25.764Z,35.97
2023-01-01T00:43:27.510Z,34.93
2023-01-01T00:44:29.318Z,34.90
2023-01-01T00:45:31.055Z,36.47
2023-01-01T00:46:32.862Z,36.43
2023-01-01T00:47:34.646Z,37.03
2023-01-01T00:48:36.557Z,34.93
2023-01-01T00:49:38.266Z,35.60
2023-01-01T00:50:40.018Z,35.23
2023-01-01T00:51:41.751Z,34.53
2023-01-01T00:52:43.670Z,35.93
2023-01-01T00:53:45.431Z,36.33
2023-01-01T00:54:47.182Z,35.57
2023-01-01T00:55:51.811Z,34.77
2023-01-01T00:56:53.623Z,34.60
2023-01-01T00:57:55.375Z,33.40
2023-01-01T00:59:00.893Z,30.97
2023-01-01T01:00:06.085Z,30.57
2023-01-01T01:01:07.972Z,31.03
2023-01-01T01:02:10.077Z,30.13
2023-01-01T01:03:27.871Z,29.80
2023-01-01T01:04:29.706Z,29.73
2023-01-01T01:05:33.248Z,30.03
2023-01-01T01:06:35.569Z,30.17
2023-01-01T01:07:38.608Z,29.23
2023-01-01T01:08:44.001Z,27.80
2023-01-01T01:09:45.826Z,28.10
2023-01-01T01:10:47.572Z,27.37
2023-01-01T01:11:50.547Z,26.77
2023-01-01T01:12:53.308Z,26.23
2023-01-01T01:13:57.078Z,26.00
2023-01-01T01:14:58.814Z,27.17
2023-01-01T01:16:00.973Z,29.87
2023-01-01T01:17:03.144Z,30.77
2023-01-01T01:18:05.030Z,32.43
2023-01-01T01:19:07.395Z,33.20
2023-01-01T01:20:09.736Z,33.13
2023-01-01T01:21:16.286Z,34.90
2023-01-01T01:22:20.504Z,34.53
2023-01-01T01:23:26.091Z,34.23
2023-01-01T01:24:27.993Z,32.27
2023-01-01T01:25:29.769Z,32.73
2023-01-01T01:26:34.021Z,31.80
2023-01-01T01:27:35.881Z,31.63
2023-01-01T01:28:38.846Z,31.07
2023-01-01T01:29:42.145Z,30.00
2023-01-01T01:30:43.944Z,28.53
2023-01-01T01:31:45.799Z,26.90
2023-01-01T01:32:47.601Z,27.17
2023-01-01T01:33:50.219Z,27.83
2023-01-01T01:34:51.993Z,25.13
2023-01-01T01:35:53.884Z,24.63
2023-01-01T01:36:57.611Z,22.90
2023-01-01T01:37:59.928Z,21.77
2023-01-01T01:39:01.772Z,22.10
2023-01-01T01:40:04.320Z,21.23
2023-01-01T01:41:06.393Z,20.93
2023-01-01T01:42:12.436Z,19.87
2023-01-01T01:43:45.866Z,19.47
2023-01-01T01:44:59.516Z,18.80
2023-01-01T01:46:17.327Z,19.43
2023-01-01T01:47:50.784Z,18.03
2023-01-01T01:48:56.451Z,17.37
2023-01-01T01:50:22.670Z,17.20
2023-01-01T01:51:36.831Z,17.67
2023-01-01T01:52:47.705Z,18.07
2023-01-01T01:53:59.869Z,17.63
2023-01-01T01:55:05.194Z,16.80
2023-01-01T01:56:15.513Z,18.07
2023-01-01T01:57:18.485Z,17.20
2023-01-01T01:58:20.893Z,17.23
2023-01-01T01:59:30.071Z,15.83
2023-01-01T02:00:31.915Z,15.93
2023-01-01T02:01:33.824Z,15.30
2023-01-01T02:03:08.138Z,14.10
2023-01-01T02:04:12.217Z,15.50
2023-01-01T02:05:14.285Z,15.97
2023-01-01T02:06:19.010Z,14.97
2023-01-01T02:07:25.931Z,14.93
2023-01-01T02:08:29.984Z,14.03
2023-01-01T02:09:31.765Z,14.37
2023-01-01T02:10:34.220Z,13.47
2023-01-01T02:11:36.018Z,14.93
2023-01-01T02:12:38.109Z,14.90
2023-01-01T02:13:40.208Z,14.20
2023-01-01T02:14:42.116Z,13.93
2023-01-01T02:16:18.103Z,12.73
2023-01-01T02:17:39.559Z,12.97
2023-01-01T02:19:15.644Z,12.30
2023-01-01T02:20:46.747Z,12.77
2023-01-01T02:22:37.920Z,12.03
2023-01-01T02:24:15.774Z,11.03
2023-01-01T02:25:58.460Z,11.23
2023-01-01T02:27:15.203Z,11.37
2023-01-01T02:28:44.324Z,10.97
2023-01-01T02:29:53.073Z,11.07
2023-01-01T02:30:57.727Z,11.53
2023-01-01T02:32:12.887Z,11.27
2023-01-01T02:33:24.841Z,10.20
2023-01-01T02:34:34.854Z,10.37
2023-01-01T02:35:45.577Z,10.73
2023-01-01T02:36:54.490Z,10.00
2023-01-01T02:38:05.439Z,10.33
2023-01-01T02:39:10.715Z,9.83
2023-01-01T02:40:12.688Z,9.97
2023-01-01T02:41:33.243Z,10.13
2023-01-01T02:42:35.067Z,9.10
2023-01-01T02:43:38.398Z,9.63
2023-01-01T02:44:45.515Z,9.63
2023-01-01T02:45:47.466Z,8.00
2023-01-01T02:46:49.310Z,8.07
2023-01-01T02:47:51.111Z,7.83
2023-01-01T02:48:53.723Z,9.20
2023-01-01T02:50:16.523Z,8.80
2023-01-01T02:52:01.383Z,8.63
2023-01-01T02:53:14.713Z,8.07
2023-01-01T02:54:19.441Z,8.90
2023-01-01T02:55:29.857Z,7.97
2023-01-01T02:56:49.129Z,7.67
2023-01-01T02:58:29.742Z,8.10
2023-01-01T03:00:15.191Z,7.87
2023-01-01T03:01:39.961Z,7.60
2023-01-01T03:03:09.755Z,7.63
2023-01-01T03:04:40.393Z,7.73
2023-01-01T03:06:24.930Z,7.73
2023-01-01T03:07:50.210Z,7.23
2023-01-01T03:09:13.415Z,7.93
2023-01-01T03:10:24.007Z,7.40
2023-01-01T03:11:43.819Z,7.93
2023-01-01T03:13:03.822Z,8.20
2023-01-01T03:14:15.798Z,8.37
2023-01-01T03:15:43.207Z,8.90
2023-01-01T03:16:53.738Z,7.37
2023-01-01T03:18:39.567Z,8.23
2023-01-01T03:19:43.426Z,7.30
2023-01-01T03:20:51.635Z,7.37
2023-01-01T03:22:04.934Z,6.93
2023-01-01T03:23:19.037Z,6.90
2023-01-01T03:24:35.027Z,6.63
2023-01-01T03:25:46.926Z,6.67
2023-01-01T03:26:56.878Z,7.07
2023-01-01T03:28:14.891Z,6.30
2023-01-01T03:29:18.589Z,6.93
2023-01-01T03:30:22.296Z,7.17
2023-01-01T03:31:26.750Z,6.57
2023-01-01T03:33:09.845Z,6.77
2023-01-01T03:34:21.794Z,7.10
2023-01-01T03:35:30.479Z,7.20
2023-01-01T03:36:39.292Z,7.43
2023-01-01T03:37:45.364Z,6.93
2023-01-01T03:38:58.208Z,7.27
2023-01-01T03:40:00.204Z,6.53
2023-01-01T03:41:11.474Z,6.50
2023-01-01T03:42:26.804Z,6.40
2023-01-01T03:43:39.707Z,7.03
2023-01-01T03:45:01.725Z,6.00
2023-01-01T03:46:06.931Z,6.30
2023-01-01T03:47:08.769Z,5.70
2023-01-01T03:48:12.235Z,6.30
2023-01-01T03:49:15.505Z,5.27
2023-01-01T03:50:19.600Z,5.87
2023-01-01T03:52:01.823Z,6.40
2023-01-01T03:53:14.717Z,5.90
2023-01-01T03:54:28.137Z,5.30
2023-01-01T03:55:50.192Z,5.30
2023-01-01T03:57:04.277Z,4.60
2023-01-01T03:58:48.873Z,5.07
2023-01-01T04:00:10.993Z,5.47
2023-01-01T04:01:33.597Z,4.63
2023-01-01T04:02:43.449Z,5.30
2023-01-01T04:03:46.741Z,5.30
2023-01-01T04:04:51.614Z,4.90
2023-01-01T04:05:53.612Z,4.87
2023-01-01T04:06:57.678Z,4.40
2023-01-01T04:08:03.561Z,4.73
2023-01-01T04:09:18.862Z,4.93
2023-01-01T04:10:22.371Z,4.63
2023-01-01T04:11:48.769Z,4.33
2023-01-01T04:12:58.473Z,3.77
2023-01-01T04:14:00.216Z,3.90
2023-01-01T04:15:02.016Z,4.50
2023-01-01T04:16:04.099Z,4.23
2023-01-01T04:17:09.071Z,4.43
2023-01-01T04:18:10.882Z,4.43
2023-01-01T04:19:12.583Z,4.13
2023-01-01T04:20:14.735Z,3.93
2023-01-01T04:21:16.444Z,4.37
2023-01-01T04:22:19.926Z,4.77
2023-01-01T04:23:21.655Z,3.20
2023-01-01T04:24:23.932Z,4.43
2023-01-01T04:25:27.054Z,3.93
2023-01-01T04:26:28.779Z,3.90
2023-01-01T04:27:30.590Z,4.17
2023-01-01T04:28:32.321Z,4.00
2023-01-01T04:29:34.042Z,4.13
2023-01-01T04:31:36.745Z,3.90
2023-01-01T04:32:39.357Z,4.07
2023-01-01T04:33:41.174Z,4.60
2023-01-01T04:34:43.115Z,4.47
2023-01-01T04:35:44.926Z,3.83
2023-01-01T04:36:46.959Z,3.67
2023-01-01T04:37:48.669Z,3.73
2023-01-01T04:38:50.409Z,3.27
2023-01-01T04:39:52.546Z,4.10
2023-01-01T04:41:02.892Z,3.87
2023-01-01T04:42:04.698Z,3.73
2023-01-01T04:43:06.485Z,3.60
2023-01-01T04:44:08.444Z,3.60
2023-01-01T04:45:14.796Z,3.70
2023-01-01T04:46:18.977Z,3.37
2023-01-01T04:47:20.835Z,3.20
2023-01-01T04:48:22.894Z,3.00
2023-01-01T04:49:24.688Z,3.20
2023-01-01T04:50:26.470Z,3.17
2023-01-01T04:51:28.219Z,3.37
2023-01-01T04:52:30.006Z,3.07
2023-01-01T04:53:34.504Z,3.00
2023-01-01T04:54:36.374Z,3.37
2023-01-01T04:55:38.117Z,3.10
2023-01-01T04:56:39.864Z,3.20
2023-01-01T04:57:42.469Z,3.00
2023-01-01T04:58:45.220Z,3.00
2023-01-01T04:59:46.968Z,3.20
2023-01-01T05:00:51.618Z,3.07
2023-01-01T05:01:53.646Z,3.07
2023-01-01T05:02:55.560Z,3.00
2023-01-01T05:03:59.247Z,3.13
2023-01-01T05:05:01.053Z,3.67
2023-01-01T05:06:13.170Z,3.00
2023-01-01T05:07:14.981Z,2.60
2023-01-01T05:08:16.773Z,2.63
2023-01-01T05:09:18.910Z,3.10
2023-01-01T05:10:20.620Z,2.90
2023-01-01T05:11:30.182Z,2.70
2023-01-01T05:12:31.986Z,3.27
2023-01-01T05:13:40.306Z,3.10
2023-01-01T05:14:42.093Z,3.27
2023-01-01T05:15:43.790Z,3.50
2023-01-01T05:16:45.547Z,4.23
2023-01-01T05:17:47.329Z,4.20
2023-01-01T05:18:50.557Z,4.03
2023-01-01T05:19:52.335Z,3.27
2023-01-01T05:20:54.066Z,3.03
2023-01-01T05:21:55.837Z,2.63
2023-01-01T05:22:57.616Z,3.17
2023-01-01T05:24:06.526Z,2.83
2023-01-01T05:25:08.646Z,3.10
2023-01-01T05:26:17.612Z,2.77
2023-01-01T05:27:19.356Z,3.13
2023-01-01T05:28:21.372Z,2.90
2023-01-01T05:29:24.260Z,2.90
2023-01-01T05:30:25.981Z,2.87
2023-01-01T05:31:31.926Z,2.80
2023-01-01T05:32:33.714Z,3.10
2023-01-01T05:33:36.595Z,2.57
2023-01-01T05:35:39.756Z,2.80
2023-01-01T05:36:41.515Z,2.70
2023-01-01T05:37:43.289Z,3.50
2023-01-01T05:38:45.836Z,3.50
2023-01-01T05:39:48.193Z,2.90
2023-01-01T05:40:49.918Z,3.37
2023-01-01T05:41:51.862Z,2.83
2023-01-01T05:42:53.708Z,2.50
2023-01-01T05:43:55.433Z,2.63
2023-01-01T05:44:57.146Z,2.37
2023-01-01T05:46:05.692Z,2.70
2023-01-01T05:47:07.567Z,2.57
2023-01-01T05:48:09.617Z,2.33
2023-01-01T05:49:12.727Z,2.70
2023-01-01T05:50:14.751Z,2.60
2023-01-01T05:51:28.955Z,2.80
2023-01-01T05:52:30.676Z,2.33
2023-01-01T05:53:33.651Z,2.20
2023-01-01T05:54:35.381Z,2.33
2023-01-01T05:55:37.150Z,2.10
2023-01-01T05:56:38.963Z,1.90
2023-01-01T05:57:40.733Z,2.20
2023-01-01T05:58:43.954Z,2.10
2023-01-01T05:59:45.694Z,2.10
2023-01-01T06:00:47.762Z,1.80
2023-01-01T06:01:49.555Z,2.00
2023-01-01T06:02:51.572Z,2.20
2023-01-01T06:03:55.692Z,2.30
2023-01-01T06:04:57.660Z,2.03
2023-01-01T06:06:08.434Z,1.90
2023-01-01T06:07:10.243Z,1.90
2023-01-01T06:08:12.793Z,1.90
2023-01-01T06:09:14.535Z,2.20
2023-01-01T06:10:16.426Z,1.60
2023-01-01T06:11:19.405Z,2.00
2023-01-01T06:12:21.140Z,1.93
2023-01-01T06:13:22.914Z,1.80
2023-01-01T06:14:24.636Z,1.70
2023-01-01T06:15:27.205Z,1.60
2023-01-01T06:16:30.979Z,1.60
2023-01-01T06:17:34.357Z,1.77
2023-01-01T06:18:36.443Z,1.90
2023-01-01T06:19:38.285Z,1.90
2023-01-01T06:20:40.055Z,1.73
2023-01-01T06:21:41.856Z,1.90
2023-01-01T06:22:43.825Z,2.00
2023-01-01T06:23:46.278Z,1.70
2023-01-01T06:24:48.059Z,1.83
2023-01-01T06:25:49.838Z,1.87
2023-01-01T06:26:51.641Z,1.87
2023-01-01T06:27:53.367Z,1.70
2023-01-01T06:28:56.427Z,1.70
2023-01-01T06:29:58.287Z,1.90
2023-01-01T06:31:05.661Z,1.50
2023-01-01T06:32:07.589Z,1.90
2023-01-01T06:33:09.375Z,1.70
2023-01-01T06:34:11.219Z,1.50
2023-01-01T06:35:13.042Z,1.50
2023-01-01T06:36:18.028Z,1.57
2023-01-01T06:37:19.944Z,1.70
2023-01-01T06:38:21.714Z,1.50
2023-01-01T06:39:23.488Z,1.87
2023-01-01T06:40:25.351Z,1.40
2023-01-01T06:41:28.642Z,1.63
2023-01-01T06:42:33.836Z,1.70
2023-01-01T06:43:36.567Z,1.43
2023-01-01T06:44:38.343Z,1.40
2023-01-01T06:45:40.103Z,1.50
2023-01-01T06:46:41.900Z,1.60
2023-01-01T06:47:43.631Z,1.53
2023-01-01T06:48:48.272Z,1.63
2023-01-01T06:49:50.034Z,1.57
2023-01-01T06:50:51.756Z,1.60
2023-01-01T06:51:53.539Z,1.20
2023-01-01T06:52:55.287Z,1.27
2023-01-01T06:54:02.653Z,1.50
2023-01-01T06:55:04.889Z,1.60
2023-01-01T06:56:07.069Z,1.63
2023-01-01T06:57:08.940Z,1.60
2023-01-01T06:58:10.688Z,1.63
2023-01-01T06:59:12.445Z,1.70
2023-01-01T07:00:15.592Z,1.47
2023-01-01T07:01:27.809Z,1.47
2023-01-01T07:02:29.828Z,1.60
2023-01-01T07:03:31.839Z,1.70
2023-01-01T07:04:33.646Z,1.30
2023-01-01T07:05:35.428Z,1.60
2023-01-01T07:06:37.719Z,1.60
2023-01-01T07:07:39.896Z,1.30
2023-01-01T07:08:41.663Z,1.50
2023-01-01T07:09:43.404Z,1.77
2023-01-01T07:10:45.104Z,1.50
2023-01-01T07:11:46.815Z,1.40
2023-01-01T07:12:48.563Z,1.53
2023-01-01T07:13:50.458Z,1.60
2023-01-01T07:14:52.205Z,1.70
2023-01-01T07:15:54.925Z,1.77
2023-01-01T07:16:56.633Z,1.60
2023-01-01T07:17:58.455Z,1.83
2023-01-01T07:19:01.282Z,1.73
2023-01-01T07:20:03.163Z,1.80
2023-01-01T07:21:07.556Z,1.70
2023-01-01T07:22:11.492Z,1.83
2023-01-01T07:23:13.253Z,1.50
2023-01-01T07:24:16.732Z,1.73
2023-01-01T07:25:18.574Z,1.57
2023-01-01T07:26:20.302Z,1.73
2023-01-01T07:27:22.007Z,1.70
2023-01-01T07:28:25.186Z,1.70
2023-01-01T07:29:26.960Z,1.47
2023-01-01T07:30:28.748Z,1.70
2023-01-01T07:31:30.555Z,2.20
2023-01-01T07:32:32.335Z,1.50
2023-01-01T07:33:34.089Z,1.80
2023-01-01T07:34:35.814Z,2.10
2023-01-01T07:35:37.580Z,2.00
2023-01-01T07:36:39.423Z,1.70
2023-01-01T07:37:41.235Z,1.87
2023-01-01T07:38:43.077Z,1.83
2023-01-01T07:39:44.847Z,2.27
2023-01-01T07:40:46.619Z,2.00
2023-01-01T07:41:48.389Z,1.80
2023-01-01T07:42:50.171Z,1.90
2023-01-01T07:43:52.056Z,2.00
2023-01-01T07:44:53.848Z,1.67
2023-01-01T07:45:55.660Z,2.03
2023-01-01T07:47:06.040Z,1.90
2023-01-01T07:48:14.726Z,1.87
2023-01-01T07:49:16.544Z,1.50
2023-01-01T07:50:19.013Z,2.20
2023-01-01T07:51:20.865Z,1.87
2023-01-01T07:52:22.599Z,1.90
2023-01-01T07:53:24.373Z,2.03
2023-01-01T07:54:26.177Z,1.80
2023-01-01T07:55:27.950Z,1.97
2023-01-01T07:56:29.856Z,1.90
2023-01-01T07:57:31.630Z,1.90
2023-01-01T07:58:33.407Z,2.00
2023-01-01T07:59:35.626Z,1.90
2023-01-01T08:00:37.431Z,1.80
2023-01-01T08:01:39.381Z,2.00
2023-01-01T08:02:41.824Z,2.00
2023-01-01T08:03:43.702Z,2.07
2023-01-01T08:04:45.447Z,2.10
2023-01-01T08:05:47.217Z,1.93
2023-01-01T08:06:48.972Z,1.90
2023-01-01T08:07:52.032Z,2.10
2023-01-01T08:08:54.028Z,2.00
2023-01-01T08:09:55.873Z,2.20
2023-01-01T08:11:04.083Z,2.30
2023-01-01T08:12:06.338Z,1.90
2023-01-01T08:13:09.049Z,2.00
2023-01-01T08:14:11.752Z,1.77
2023-01-01T08:15:14.985Z,1.83
2023-01-01T08:16:16.862Z,1.80
2023-01-01T08:17:18.685Z,1.80
2023-01-01T08:18:20.452Z,1.90
2023-01-01T08:19:22.199Z,2.10
2023-01-01T08:20:24.259Z,1.73
2023-01-01T08:21:26.088Z,2.30
2023-01-01T08:22:27.798Z,2.50
2023-01-01T08:23:29.856Z,2.30
2023-01-01T08:24:31.624Z,2.27
2023-01-01T08:25:33.418Z,2.20
2023-01-01T08:26:36.928Z,2.03
2023-01-01T08:27:38.758Z,1.93
2023-01-01T08:28:40.528Z,2.13
2023-01-01T08:29:44.302Z,1.93
2023-01-01T08:30:46.132Z,2.30
2023-01-01T08:31:48.214Z,1.77
2023-01-01T08:32:50.005Z,1.73
2023-01-01T08:33:51.722Z,2.07
2023-01-01T08:34:53.483Z,1.80
2023-01-01T08:35:55.411Z,1.90
2023-01-01T08:36:57.194Z,1.73
2023-01-01T08:37:58.918Z,1.77
2023-01-01T08:39:00.943Z,1.73
2023-01-01T08:40:03.035Z,1.90
2023-01-01T08:41:04.940Z,2.10
2023-01-01T08:42:12.139Z,1.70
2023-01-01T08:43:14.377Z,1.67
2023-01-01T08:44:16.120Z,1.87
2023-01-01T08:45:17.846Z,1.90
2023-01-01T08:46:19.764Z,1.93
2023-01-01T08:47:26.996Z,1.87
2023-01-01T08:48:31.063Z,1.90
2023-01-01T08:49:32.907Z,1.80
2023-01-01T08:50:34.831Z,1.70
2023-01-01T08:51:36.612Z,1.60
2023-01-01T08:52:38.406Z,1.80
2023-01-01T08:53:43.055Z,1.40
2023-01-01T08:54:48.683Z,1.30
2023-01-01T08:56:07.664Z,1.63
2023-01-01T08:57:09.942Z,1.77
2023-01-01T08:58:11.670Z,1.60
2023-01-01T08:59:13.463Z,1.53
2023-01-01T09:00:16.382Z,1.93
2023-01-01T09:01:21.426Z,1.80
2023-01-01T09:02:23.581Z,2.10
2023-01-01T09:03:26.264Z,1.57
2023-01-01T09:04:28.333Z,2.03
2023-01-01T09:05:30.121Z,1.87
2023-01-01T09:06:31.851Z,1.83
2023-01-01T09:07:33.654Z,1.70
2023-01-01T09:08:35.476Z,2.00
2023-01-01T09:09:37.238Z,1.70
2023-01-01T09:10:39.309Z,1.90
2023-01-01T09:11:52.349Z,1.73
2023-01-01T09:12:54.152Z,1.50
2023-01-01T09:13:55.940Z,1.73
2023-01-01T09:14:57.724Z,1.60
2023-01-01T09:15:59.677Z,1.90
2023-01-01T09:17:02.604Z,1.97
2023-01-01T09:18:04.887Z,1.80
2023-01-01T09:19:06.652Z,1.93
2023-01-01T09:20:09.054Z,1.90
2023-01-01T09:21:10.986Z,1.63
2023-01-01T09:22:13.305Z,1.77
2023-01-01T09:23:15.253Z,1.70
2023-01-01T09:24:17.012Z,1.60
2023-01-01T09:25:19.147Z,1.63
2023-01-01T09:26:20.912Z,1.50
2023-01-01T09:27:22.729Z,1.80
2023-01-01T09:28:26.069Z,1.80
2023-01-01T09:29:28.077Z,1.40
2023-01-01T09:30:30.267Z,1.70
2023-01-01T09:31:32.136Z,1.93
2023-01-01T09:32:34.010Z,1.57
2023-01-01T09:33:35.807Z,1.43
2023-01-01T09:34:37.514Z,1.80
2023-01-01T09:35:39.286Z,1.93
2023-01-01T09:36:41.650Z,1.70
2023-01-01T09:37:43.489Z,1.90
2023-01-01T09:38:53.156Z,1.90
2023-01-01T09:39:54.957Z,1.93
2023-01-01T09:41:08.557Z,2.00
2023-01-01T09:42:33.488Z,2.07
2023-01-01T09:44:17.945Z,1.83
2023-01-01T09:45:31.330Z,1.97
2023-01-01T09:46:33.614Z,2.30
2023-01-01T09:47:42.431Z,1.83
2023-01-01T09:49:02.411Z,2.17
2023-01-01T09:50:21.050Z,1.83
2023-01-01T09:51:25.080Z,1.70
2023-01-01T09:52:50.075Z,2.00
2023-01-01T09:54:07.526Z,1.80
2023-01-01T09:55:55.097Z,2.40
2023-01-01T09:57:01.409Z,1.83
2023-01-01T09:58:03.221Z,2.10
2023-01-01T09:59:05.105Z,1.83
2023-01-01T10:00:17.256Z,2.20
2023-01-01T10:01:42.836Z,2.03
2023-01-01T10:03:19.672Z,2.10
2023-01-01T10:04:57.571Z,1.93
2023-01-01T10:06:27.490Z,1.57
2023-01-01T10:07:45.390Z,2.00
2023-01-01T10:09:13.832Z,1.97
2023-01-01T10:10:49.563Z,1.90
2023-01-01T10:12:29.766Z,1.67
2023-01-01T10:13:42.789Z,2.03
2023-01-01T10:15:05.959Z,2.13
2023-01-01T10:16:25.331Z,2.87
2023-01-01T10:17:46.333Z,2.40
2023-01-01T10:18:57.296Z,2.70
2023-01-01T10:20:07.539Z,2.33
2023-01-01T10:21:26.339Z,2.20
2023-01-01T10:22:44.577Z,2.07
2023-01-01T10:24:04.446Z,1.90
2023-01-01T10:25:27.139Z,2.10
2023-01-01T10:26:31.312Z,2.13
2023-01-01T10:27:59.166Z,1.43
2023-01-01T10:29:24.140Z,2.00
2023-01-01T10:30:27.516Z,2.00
2023-01-01T10:31:38.660Z,1.97
2023-01-01T10:32:42.497Z,2.07
2023-01-01T10:33:47.614Z,2.10
2023-01-01T10:34:51.335Z,2.10
2023-01-01T10:35:56.788Z,2.30
2023-01-01T10:37:01.207Z,2.10
2023-01-01T10:38:05.748Z,2.70
2023-01-01T10:39:13.442Z,2.20
2023-01-01T10:40:21.545Z,2.50
2023-01-01T10:41:23.375Z,2.30
2023-01-01T10:42:26.234Z,2.17
2023-01-01T10:43:28.058Z,2.45
2023-01-01T10:44:33.726Z,2.30
2023-01-01T10:45:44.163Z,2.35
2023-01-01T10:46:56.526Z,2.30
2023-01-01T10:48:11.436Z,2.17
2023-01-01T10:49:16.016Z,2.03
2023-01-01T10:50:17.782Z,2.28
2023-01-01T10:51:26.792Z,2.03
2023-01-01T10:52:40.605Z,2.22
2023-01-01T10:54:00.818Z,2.10
2023-01-01T10:55:03.743Z,2.10
2023-01-01T10:56:41.315Z,1.88
2023-01-01T10:57:43.094Z,2.30
2023-01-01T10:59:00.555Z,2.22
2023-01-01T11:00:24.509Z,2.17
2023-01-01T11:01:32.512Z,2.28
2023-01-01T11:02:34.539Z,2.00
2023-01-01T11:03:36.777Z,2.28
2023-01-01T11:04:38.567Z,2.30
2023-01-01T11:05:40.575Z,2.28
2023-01-01T11:06:46.630Z,2.00
2023-01-01T11:07:48.624Z,2.13
2023-01-01T11:08:55.114Z,2.35
2023-01-01T11:10:04.208Z,2.28
2023-01-01T11:11:06.656Z,2.25
2023-01-01T11:12:54.793Z,2.28
2023-01-01T11:13:42.902Z,1.95
2023-01-01T11:14:53.701Z,1.83
2023-01-01T11:15:56.895Z,2.22
2023-01-01T11:16:59.458Z,2.25
2023-01-01T11:18:35.610Z,2.17
2023-01-01T11:19:45.612Z,2.30
2023-01-01T11:20:58.489Z,2.17
2023-01-01T11:22:00.937Z,2.40
2023-01-01T11:23:19.900Z,2.10
2023-01-01T11:24:29.509Z,2.15
2023-01-01T11:25:34.211Z,2.30
2023-01-01T11:26:36.012Z,2.28
2023-01-01T11:27:37.888Z,1.95
2023-01-01T11:28:41.334Z,2.05
2023-01-01T11:29:43.152Z,2.25
2023-01-01T11:31:09.694Z,2.05
2023-01-01T11:32:21.034Z,2.15
2023-01-01T11:33:23.048Z,2.28
2023-01-01T11:34:43.391Z,2.10
2023-01-01T11:35:55.847Z,1.88
2023-01-01T11:37:25.607Z,2.05
2023-01-01T11:38:30.094Z,1.85
2023-01-01T11:39:37.208Z,1.77
2023-01-01T11:40:47.450Z,2.00
2023-01-01T11:41:53.215Z,1.67
2023-01-01T11:43:02.080Z,2.10
2023-01-01T11:44:03.934Z,2.00
2023-01-01T11:45:23.109Z,2.10
2023-01-01T11:46:25.213Z,2.10
2023-01-01T11:47:27.360Z,1.92
2023-01-01T11:48:35.138Z,1.90
2023-01-01T11:49:37.024Z,1.90
2023-01-01T11:50:42.207Z,2.33
2023-01-01T11:51:44.360Z,1.63
2023-01-01T11:52:49.748Z,1.95
2023-01-01T11:53:51.539Z,2.08
2023-01-01T11:55:01.183Z,2.00
2023-01-01T11:56:22.635Z,2.08
2023-01-01T11:57:26.720Z,2.42
2023-01-01T11:58:45.126Z,1.95
2023-01-01T11:59:59.988Z,1.92
2023-01-01T12:01:33.898Z,1.98
2023-01-01T12:02:50.842Z,1.75
2023-01-01T12:04:01.511Z,2.00
2023-01-01T12:05:41.377Z,1.95
2023-01-01T12:07:06.028Z,1.98
2023-01-01T12:08:13.001Z,1.90
2023-01-01T12:09:30.016Z,1.70
2023-01-01T12:10:45.964Z,2.05
2023-01-01T12:12:13.215Z,2.10
2023-01-01T12:13:24.669Z,2.00
2023-01-01T12:14:37.142Z,1.80
2023-01-01T12:15:58.858Z,1.80
2023-01-01T12:17:27.733Z,2.20
2023-01-01T12:18:58.645Z,1.77
2023-01-01T12:20:03.562Z,1.85
2023-01-01T12:21:28.577Z,2.75
2023-01-01T12:22:30.743Z,1.58
2023-01-01T12:23:32.838Z,1.90
2023-01-01T12:24:36.651Z,1.85
2023-01-01T12:25:43.857Z,2.25
2023-01-01T12:27:10.722Z,2.08
2023-01-01T12:28:33.456Z,2.17
2023-01-01T12:29:50.381Z,2.03
2023-01-01T12:31:32.952Z,2.00
2023-01-01T12:33:08.767Z,2.40
2023-01-01T12:34:36.371Z,1.90
2023-01-01T12:36:20.456Z,1.90
2023-01-01T12:37:42.930Z,1.90
2023-01-01T12:39:22.355Z,2.10
2023-01-01T12:41:00.375Z,1.88
2023-01-01T12:42:10.898Z,2.20
2023-01-01T12:43:25.990Z,2.10
2023-01-01T12:45:15.665Z,1.83
2023-01-01T12:46:47.843Z,1.90
2023-01-01T12:48:01.675Z,1.77
2023-01-01T12:49:18.281Z,1.90
2023-01-01T12:50:56.086Z,1.83
2023-01-01T12:52:37.834Z,2.10
2023-01-01T12:54:17.149Z,1.80
2023-01-01T12:55:55.539Z,1.80
2023-01-01T12:57:32.465Z,2.00
2023-01-01T12:58:57.263Z,1.80
2023-01-01T13:00:11.578Z,1.83
2023-01-01T13:01:27.176Z,2.27
2023-01-01T13:02:47.717Z,1.70
2023-01-01T13:04:07.775Z,2.00
2023-01-01T13:05:44.179Z,2.50
2023-01-01T13:07:03.300Z,1.77
2023-01-01T13:08:06.885Z,1.90
2023-01-01T13:09:20.809Z,2.00
2023-01-01T13:10:43.180Z,2.10
2023-01-01T13:11:52.783Z,1.67
2023-01-01T13:12:56.276Z,1.90
2023-01-01T13:13:58.089Z,2.00
2023-01-01T13:14:59.793Z,2.20
2023-01-01T13:16:01.712Z,2.17
2023-01-01T13:17:03.514Z,1.90
2023-01-01T13:18:19.774Z,2.13
2023-01-01T13:20:14.502Z,1.80
2023-01-01T13:21:16.230Z,2.20
2023-01-01T13:22:26.893Z,2.20
2023-01-01T13:23:38.509Z,2.20
2023-01-01T13:24:40.316Z,2.20
2023-01-01T13:25:42.125Z,2.13
2023-01-01T13:26:44.118Z,2.20
2023-01-01T13:27:57.933Z,1.93
2023-01-01T13:28:59.830Z,2.33
2023-01-01T13:30:01.582Z,1.80
2023-01-01T13:31:03.434Z,1.83
2023-01-01T13:32:07.213Z,2.07
2023-01-01T13:33:35.079Z,2.30
2023-01-01T13:35:00.487Z,2.10
2023-01-01T13:36:08.559Z,1.97
2023-01-01T13:37:10.394Z,2.10
2023-01-01T13:38:52.574Z,2.13
2023-01-01T13:40:12.046Z,2.33
2023-01-01T13:41:39.366Z,2.00
2023-01-01T13:43:07.207Z,2.13
2023-01-01T13:44:08.872Z,1.67
2023-01-01T13:46:10.969Z,2.00
2023-01-01T13:47:19.636Z,1.80
2023-01-01T13:48:59.286Z,1.47
2023-01-01T13:50:17.589Z,2.27
2023-01-01T13:52:07.572Z,1.83
2023-01-01T13:53:52.771Z,1.93
2023-01-01T13:55:37.319Z,1.80
2023-01-01T13:57:09.169Z,1.87
2023-01-01T13:59:06.172Z,1.80
2023-01-01T14:00:25.124Z,1.97
2023-01-01T14:02:02.002Z,2.00
2023-01-01T14:03:15.316Z,1.83
2023-01-01T14:04:51.196Z,1.93
2023-01-01T14:06:02.871Z,2.03
2023-01-01T14:07:52.006Z,2.70
2023-01-01T14:09:09.495Z,2.13
2023-01-01T14:10:18.514Z,2.07
2023-01-01T14:11:24.509Z,1.83
2023-01-01T14:12:26.248Z,2.10
2023-01-01T14:13:40.435Z,1.77
2023-01-01T14:14:42.234Z,1.80
2023-01-01T14:16:13.611Z,2.10
2023-01-01T14:17:17.200Z,1.87
2023-01-01T14:18:25.347Z,2.00
2023-01-01T14:19:28.503Z,2.13
2023-01-01T14:20:46.556Z,1.90
2023-01-01T14:21:48.535Z,2.00
2023-01-01T14:22:52.727Z,1.80
2023-01-01T14:23:57.428Z,1.77
2023-01-01T14:25:02.736Z,2.00
2023-01-01T14:26:14.747Z,3.70
2023-01-01T14:27:21.676Z,3.63
2023-01-01T14:28:31.438Z,2.50
2023-01-01T14:29:33.577Z,2.43
2023-01-01T14:30:35.325Z,2.23
2023-01-01T14:31:44.849Z,2.00
2023-01-01T14:32:55.845Z,2.00
2023-01-01T14:33:57.672Z,2.10
2023-01-01T14:35:01.915Z,2.20
2023-01-01T14:36:27.056Z,2.10
2023-01-01T14:37:28.907Z,1.97
2023-01-01T14:38:36.299Z,2.30
2023-01-01T14:39:38.078Z,2.10
2023-01-01T14:40:39.879Z,1.90
2023-01-01T14:41:42.755Z,2.10
2023-01-01T14:42:50.175Z,1.67
2023-01-01T14:43:57.410Z,2.17
2023-01-01T14:44:59.221Z,2.20
2023-01-01T14:46:03.539Z,2.07
2023-01-01T14:47:33.099Z,2.27
2023-01-01T14:48:36.039Z,2.30
2023-01-01T14:49:39.255Z,2.37
2023-01-01T14:50:41.037Z,2.17
2023-01-01T14:51:52.524Z,2.23
2023-01-01T14:53:06.988Z,2.03
2023-01-01T14:54:20.355Z,2.00
2023-01-01T14:55:23.752Z,2.13
2023-01-01T14:56:32.987Z,2.10
2023-01-01T14:57:37.455Z,2.47
2023-01-01T14:58:41.395Z,2.20
2023-01-01T14:59:55.797Z,2.30
2023-01-01T15:01:22.508Z,2.40
2023-01-01T15:02:31.605Z,2.03
2023-01-01T15:03:33.533Z,2.13
2023-01-01T15:04:36.094Z,2.10
2023-01-01T15:05:39.356Z,2.03
2023-01-01T15:06:41.830Z,2.53
2023-01-01T15:07:43.608Z,2.40
2023-01-01T15:08:51.037Z,2.50
2023-01-01T15:09:55.717Z,2.70